Verstervig, Denmark
Current Conditions -  °F | °C
As of 9:50 AM on Wednesday 22 Oct 2014 (Local Time) from EKKA Reporting Station
Moderate Fog Moderate Fog  
Wind Chill: 41°   Ceiling: Unl
Heat Index: 41°   Visibility: 0.12mi
Dew Point: 41°   Wind: 2mph
Humidity: 100%   Direction: 280°W
Pressure: 29.65"   Gusts: NA
Location:  56.7°N, 8.22°E
Report Text: EKKA 220750Z 28002KT 0200 R09/0550N R27/M0250U FG FEW00105/05 Q1004 TEMPO 1200 BKN002
Loading
Personal Weather Stations






























Interactive Weather Map New forecast layout! Learn more

10-Day Weather Forecast

Advertisements
Track Severe Weather on mobile